Latest Weather Observations for Mount Gambier

IDS60801

Issued at 3:05 am CST Saturday 30 August 2014 (issued every 30 minutes, with the page automatically refreshed every 10 minutes)

About weather observations | Map of weather stations | Latest weather observations for SA | Other Formats
Station Details ID: 026021 Name: MOUNT GAMBIER AERO Lat: -37.75 Lon: 140.77 Height: 63.0 m
Data from the previous 72 hours. | See also: Recent months at Mount Gambier
Date/Time
CST
Temp
°C
App
Temp
°C
Dew
Point
Rel
Hum
%
Delta-T
°C
Wind Press
QNH
hPa
Press
MSL
hPa
Rain
since 9 am
mm
Dir
 
Spd
km/h
Gust
km/h
Spd
kts
Gust
kts
30/03:00am 8.3 - 7.4 94 0.4 - - - - - 1024.1 1024.2 0.0
30/02:30am 8.2 - 7.6 96 0.3 - - - - - 1024.5 - 0.0
30/02:00am 8.6 - 8.2 97 0.2 - - - - - 1024.8 - 0.0
30/01:55am 8.6 - 8.0 96 0.3 - - - - - 1024.8 - 0.0
30/01:30am 8.6 - 8.2 97 0.2 - - - - - 1025.1 - 0.0
30/01:00am 9.1 - 8.7 97 0.2 - - - - - 1025.3 - 0.0
30/12:30am 8.8 - 8.4 97 0.2 - - - - - 1025.5 - 0.0
30/12:22am 9.0 - 8.6 97 0.2 - - - - - 1025.5 - 0.0
30/12:00am 9.2 - 8.4 95 0.4 - - - - - 1025.6 1025.7 0.0
 
Date/Time
CST
Temp
°C
App
Temp
°C
Dew
Point
Rel
Hum
%
Delta-T
°C
Wind Press
QNH
hPa
Press
MSL
hPa
Rain
since 9 am
mm
Dir
 
Spd
km/h
Gust
km/h
Spd
kts
Gust
kts
29/11:30pm 9.5 - 8.7 95 0.4 - - - - - 1025.7 - 0.0
29/11:00pm 8.9 - 8.1 95 0.4 - - - - - 1025.8 - 0.0
29/10:30pm 8.6 - 7.3 91 0.6 - - - - - 1026.1 - 0.0
29/10:23pm 8.3 - 7.4 94 0.4 - - - - - 1026.1 - 0.0
29/10:11pm 9.1 - 7.6 90 0.7 - - - - - 1026.1 - 0.0
29/10:10pm 9.0 - 7.5 90 0.7 - - - - - 1026.1 - 0.0
29/10:00pm 8.2 - 7.6 96 0.3 - - - - - 1026.1 - 0.0
29/09:48pm 8.5 - 7.4 93 0.5 - - - - - 1026.3 - 0.0
29/09:35pm 9.7 - 8.5 92 0.6 - - - - - 1026.4 - 0.0
29/09:30pm 9.9 - 8.5 91 0.7 - - - - - 1026.4 - 0.0
29/09:00pm 10.3 - 9.3 93 0.5 - - - - - 1026.5 1026.7 0.0
29/08:30pm 10.6 - 9.4 92 0.6 - - - - - 1026.5 - 0.0
29/08:27pm 10.7 - 9.5 92 0.6 - - - - - 1026.5 - 0.0
29/08:00pm 10.5 - 9.5 93 0.5 - - - - - 1026.5 - 0.0
29/07:30pm 11.0 - 9.4 90 0.8 - - - - - 1026.7 - 0.0
29/07:00pm 11.7 - 9.5 86 1.1 - - - - - 1026.5 - 0.0
29/06:30pm 12.2 - 9.6 84 1.3 - - - - - 1026.4 - 0.0
29/06:00pm 13.1 - 10.6 85 1.3 - - - - - 1026.3 1026.4 0.0
29/05:30pm 15.0 - 11.2 78 2.0 - - - - - 1026.2 - 0.0
29/05:00pm 17.0 - 12.1 73 2.7 - - - - - 1026.1 - 0.0
29/04:30pm 18.9 - 9.2 53 5.1 - - - - - 1026.1 - 0.0
29/04:00pm 20.3 - 7.6 44 6.5 - - - - - 1026.0 - 0.0
29/03:30pm 20.7 18.7 6.1 38 7.3 SSE 6 9 3 5 1026.0 - 0.0
29/03:00pm 20.4 17.9 4.7 35 7.6 SW 7 9 4 5 1026.1 1026.2 0.0
29/02:30pm 20.4 18.6 7.2 42 6.8 S 6 9 3 5 1026.4 - 0.0
29/02:00pm 20.5 19.3 9.6 49 5.8 S 6 13 3 7 1026.5 - 0.0
29/01:30pm 21.0 19.3 7.6 42 6.9 S 6 7 3 4 1026.9 - 0.0
29/01:00pm 20.4 19.7 8.5 46 6.2 E 2 7 1 4 1027.1 - 0.0
29/12:30pm 20.1 19.6 9.3 49 5.7 E 2 7 1 4 1027.6 - 0.0
29/12:00pm 19.4 18.0 9.6 53 5.2 NNE 7 11 4 6 1028.1 1028.2 0.0
29/11:30am 18.3 16.7 10.2 59 4.3 NNE 9 15 5 8 1028.4 - 0.0
29/11:00am 17.4 15.0 10.0 62 3.9 NE 13 15 7 8 1028.7 - 0.0
29/10:30am 16.1 14.4 9.8 66 3.3 NNE 9 13 5 7 1028.9 - 0.0
29/10:00am 14.9 12.7 9.4 69 2.8 NNE 11 13 6 7 1029.0 - 0.0
29/09:30am 13.3 11.3 10.0 80 1.7 NNE 11 13 6 7 1029.2 - 0.0
29/09:00am 11.1 8.9 9.3 89 0.9 NNE 11 13 6 7 1029.3 1029.4 0.0
29/08:30am 9.2 6.7 8.2 93 0.5 NNE 11 13 6 7 1029.3 - 0.0
29/08:22am 8.3 6.1 7.9 97 0.2 NE 9 11 5 6 1029.3 - 0.0
29/08:00am 6.2 3.5 5.7 97 0.2 NE 9 11 5 6 1029.1 - 0.0
29/07:30am 4.6 0.9 4.4 99 0.1 NE 13 15 7 8 1028.7 - 0.0
29/07:00am 3.7 0.6 3.7 100 0.0 NNE 9 11 5 6 1028.4 - 0.0
29/06:30am 2.6 -0.8 2.1 96 0.2 NNE 9 11 5 6 1028.2 - 0.0
29/06:00am 3.1 -0.1 2.8 98 0.1 NE 9 9 5 5 1028.0 1028.1 0.0
29/05:30am 3.2 0.6 3.0 99 0.1 NNE 6 7 3 4 1027.8 - 0.0
29/05:00am 3.1 0.3 3.1 100 0.0 NNE 7 9 4 5 1027.4 - 0.0
29/04:30am 4.0 0.9 3.5 97 0.2 NE 9 11 5 6 1027.4 - 0.0
29/04:26am 3.9 0.4 3.7 99 0.1 NNE 11 11 6 6 1027.3 - 0.0
29/04:00am 4.0 1.3 3.8 99 0.1 NNE 7 9 4 5 1027.3 - 0.0
29/03:30am 4.5 3.3 4.5 100 0.0 CALM 0 0 0 0 1027.4 - 0.0
29/03:00am 7.4 6.4 7.2 99 0.1 N 2 6 1 3 1027.5 1027.6 0.0
29/02:52am 6.9 5.0 6.9 100 0.0 N 6 9 3 5 1027.5 - 0.0
29/02:30am 4.4 1.4 3.9 97 0.2 NNE 9 11 5 6 1027.7 - 0.0
29/02:00am 4.8 3.6 4.6 99 0.1 CALM 0 0 0 0 1028.1 - 0.0
29/01:53am 4.6 3.4 4.4 99 0.1 CALM 0 0 0 0 1028.1 - 0.0
29/01:47am 4.9 3.7 4.7 99 0.1 CALM 0 0 0 0 1028.1 - 0.0
29/01:30am 4.8 2.5 4.8 100 0.0 NNE 6 7 3 4 1028.3 - 0.0
29/01:00am 4.8 3.6 4.6 99 0.1 CALM 0 0 0 0 1028.5 - 0.0
29/12:30am 5.1 4.0 5.1 100 0.0 CALM 0 0 0 0 1028.5 - 0.0
29/12:00am 5.7 3.5 5.5 99 0.1 NE 6 7 3 4 1028.6 1028.7 0.0
 
Date/Time
CST
Temp
°C
App
Temp
°C
Dew
Point
Rel
Hum
%
Delta-T
°C
Wind Press
QNH
hPa
Press
MSL
hPa
Rain
since 9 am
mm
Dir
 
Spd
km/h
Gust
km/h
Spd
kts
Gust
kts
28/11:30pm 6.0 5.0 5.5 97 0.2 CALM 0 7 0 4 1028.7 - 0.0
28/11:00pm 6.0 5.0 5.5 97 0.2 CALM 0 0 0 0 1028.7 - 0.0
28/10:43pm 6.9 6.1 6.7 99 0.1 CALM 0 0 0 0 1028.7 - 0.0
28/10:42pm 7.0 6.2 6.6 97 0.2 CALM 0 0 0 0 1028.7 - 0.0
28/10:30pm 6.9 6.0 6.2 95 0.3 CALM 0 0 0 0 1028.6 - 0.0
28/10:24pm 7.0 6.2 6.6 97 0.2 CALM 0 0 0 0 1028.6 - 0.0
28/10:00pm 7.5 6.8 6.8 95 0.3 CALM 0 0 0 0 1028.8 - 0.0
28/09:44pm 7.3 6.6 6.9 97 0.2 CALM 0 0 0 0 1028.8 - 0.0
28/09:30pm 7.8 7.2 7.4 97 0.2 CALM 0 0 0 0 1028.8 - 0.0
28/09:05pm 9.0 8.3 8.4 96 0.3 NNE 2 6 1 3 1028.7 - 0.0
28/09:00pm 9.0 7.8 8.2 95 0.4 NNE 4 6 2 3 1028.7 1028.8 0.0
28/08:30pm 8.4 6.2 7.8 96 0.3 NNE 9 9 5 5 1028.6 - 0.0
28/08:00pm 9.5 9.2 8.7 95 0.4 CALM 0 0 0 0 1028.5 - 0.0
28/07:30pm 9.6 9.3 8.6 93 0.5 CALM 0 0 0 0 1028.2 - 0.0
28/07:00pm 10.6 10.4 9.0 90 0.8 CALM 0 0 0 0 1028.1 - 0.0
28/06:30pm 11.1 9.5 8.2 82 1.4 W 6 7 3 4 1028.0 - 0.0
28/06:00pm 13.3 12.0 9.1 76 2.1 W 6 7 3 4 1028.0 1028.1 0.0
28/05:30pm 14.4 12.1 9.1 70 2.7 WSW 11 13 6 7 1027.8 - 0.0
28/05:00pm 15.8 12.5 8.0 60 3.9 WSW 15 17 8 9 1027.7 - 0.0
28/04:30pm 17.1 14.3 8.5 57 4.4 WSW 13 17 7 9 1027.4 - 0.0
28/04:00pm 17.9 14.7 6.8 48 5.5 WSW 13 17 7 9 1027.2 - 0.0
28/03:30pm 18.3 14.8 7.1 48 5.6 SW 15 19 8 10 1027.1 - 0.0
28/03:00pm 18.8 15.3 8.8 52 5.2 SW 17 22 9 12 1027.1 1027.2 0.0
28/02:30pm 19.3 16.2 9.0 51 5.4 SW 15 19 8 10 1027.0 - 0.0
28/02:00pm 19.4 15.6 7.4 45 6.1 WSW 17 24 9 13 1027.1 - 0.0
28/01:30pm 19.4 16.1 6.3 42 6.5 WSW 13 20 7 11 1027.2 - 0.0
28/01:00pm 19.4 17.3 8.4 49 5.7 NNW 9 15 5 8 1027.2 - 0.0
28/12:30pm 18.7 16.2 8.4 51 5.3 N 11 15 6 8 1027.5 - 0.0
28/12:00pm 18.9 17.1 9.6 54 4.9 NNW 9 19 5 10 1027.7 1027.8 0.0
28/11:30am 18.1 15.4 9.1 55 4.7 NNW 13 17 7 9 1028.3 - 0.0
28/11:00am 17.2 14.1 8.8 57 4.3 NNW 15 20 8 11 1028.5 - 0.0
28/10:30am 16.3 13.7 9.3 63 3.6 NNW 13 17 7 9 1028.7 - 0.0
28/10:00am 15.4 12.6 10.0 70 2.8 NNW 15 20 8 11 1028.7 - 0.0
28/09:30am 13.5 10.5 9.1 75 2.2 N 15 20 8 11 1028.9 - 0.0
28/09:00am 12.1 9.4 8.9 81 1.6 NNW 13 17 7 9 1029.0 1029.1 0.0
28/08:30am 11.0 8.3 9.0 87 1.0 N 13 17 7 9 1029.0 - 0.0
28/08:00am 9.3 9.0 8.5 95 0.4 CALM 0 0 0 0 1029.0 - 0.0
28/07:30am 7.5 6.8 7.1 97 0.2 CALM 0 0 0 0 1028.7 - 0.0
28/07:00am 5.8 4.4 5.3 97 0.2 NNE 2 7 1 4 1028.5 - 0.0
28/06:30am 4.8 3.6 4.6 99 0.1 CALM 0 0 0 0 1028.2 - 0.0
28/06:00am 5.0 3.7 4.3 95 0.3 CALM 0 0 0 0 1028.0 1028.1 0.0
28/05:49am 4.7 3.3 3.7 93 0.4 CALM 0 0 0 0 1027.9 - 0.0
28/05:30am 4.1 2.8 4.1 100 0.0 CALM 0 0 0 0 1027.8 - 0.0
28/05:00am 4.9 3.8 4.9 100 0.0 CALM 0 0 0 0 1027.5 - 0.0
28/04:53am 6.6 5.4 6.4 99 0.1 N 2 7 1 4 1027.4 - 0.0
28/04:30am 6.5 3.8 5.6 94 0.4 NNE 9 11 5 6 1027.4 - 0.0
28/04:03am 7.4 4.9 6.7 95 0.3 NNE 9 11 5 6 1027.4 - 0.0
28/04:00am 7.5 5.1 6.8 95 0.3 NNE 9 11 5 6 1027.5 - 0.0
28/03:51am 7.5 5.0 6.6 94 0.4 NNE 9 11 5 6 1027.4 - 0.0
28/03:32am 7.3 4.5 6.9 97 0.2 N 11 13 6 7 1027.4 - 0.0
28/03:30am 7.1 4.3 6.9 99 0.1 N 11 13 6 7 1027.3 - 0.0
28/03:23am 7.0 4.1 6.6 97 0.2 N 11 13 6 7 1027.4 - 0.0
28/03:07am 6.7 4.2 6.5 99 0.1 N 9 9 5 5 1027.4 - 0.0
28/03:00am 6.7 4.2 6.5 99 0.1 N 9 11 5 6 1027.5 1027.6 0.0
28/02:37am 6.7 4.1 6.3 97 0.2 NNE 9 11 5 6 1027.6 - 0.0
28/02:30am 6.4 3.7 5.7 95 0.3 NNE 9 11 5 6 1027.7 - 0.0
28/02:17am 6.0 3.7 5.8 99 0.1 NNE 7 9 4 5 1027.7 - 0.0
28/02:00am 4.9 2.2 3.9 93 0.4 NNE 7 9 4 5 1027.8 - 0.0
28/01:33am 4.6 2.2 4.4 99 0.1 NNE 6 7 3 4 1028.0 - 0.0
28/01:30am 5.0 2.2 3.3 89 0.7 NNE 7 7 4 4 1028.1 - 0.0
28/01:08am 4.3 1.3 4.3 100 0.0 NE 9 11 5 6 1028.1 - 0.0
28/01:00am 4.6 2.0 4.4 99 0.1 NNE 7 9 4 5 1028.1 - 0.0
28/12:30am 4.5 3.2 4.3 99 0.1 CALM 0 0 0 0 1028.6 - 0.0
28/12:00am 6.2 4.5 5.7 97 0.2 NNE 4 7 2 4 1028.5 1028.6 0.0
 
Date/Time
CST
Temp
°C
App
Temp
°C
Dew
Point
Rel
Hum
%
Delta-T
°C
Wind Press
QNH
hPa
Press
MSL
hPa
Rain
since 9 am
mm
Dir
 
Spd
km/h
Gust
km/h
Spd
kts
Gust
kts
27/11:51pm 6.1 5.1 5.4 95 0.3 CALM 0 0 0 0 1028.5 - 0.0
27/11:30pm 5.9 5.0 5.9 100 0.0 CALM 0 0 0 0 1028.6 - 0.0
27/11:27pm 6.5 5.7 6.3 99 0.1 CALM 0 0 0 0 1028.7 - 0.0
27/11:08pm 6.6 5.8 6.4 99 0.1 CALM 0 0 0 0 1028.8 - 0.0
27/11:07pm 6.8 6.0 6.4 97 0.2 CALM 0 0 0 0 1028.8 - 0.0
27/11:00pm 6.3 5.3 5.4 94 0.4 CALM 0 0 0 0 1028.8 - 0.0
27/10:37pm 6.9 5.7 6.5 97 0.2 NNE 2 7 1 4 1028.8 - 0.0
27/10:30pm 7.9 6.2 7.5 97 0.2 NNE 6 7 3 4 1028.7 - 0.0
27/10:00pm 8.4 6.6 7.8 96 0.3 NNE 7 7 4 4 1028.6 - 0.0
27/09:30pm 8.0 6.1 7.4 96 0.3 NNE 7 7 4 4 1028.5 - 0.0
27/09:00pm 9.3 7.8 8.5 95 0.4 NNE 6 6 3 3 1028.5 1028.6 0.0
27/08:30pm 8.9 8.4 7.8 93 0.5 CALM 0 0 0 0 1028.4 - 0.0
27/08:00pm 9.6 9.2 8.1 90 0.7 CALM 0 0 0 0 1028.5 - 0.0
27/07:30pm 9.8 8.6 8.1 89 0.8 SSW 4 6 2 3 1028.3 - 0.0
27/07:00pm 10.9 9.4 8.4 84 1.2 SW 6 9 3 5 1028.1 - 0.0
27/06:30pm 12.0 11.7 8.6 80 1.7 CALM 0 0 0 0 1027.7 - 0.0
27/06:00pm 13.1 11.0 8.2 72 2.4 SW 9 11 5 6 1027.5 1027.6 0.0
27/05:30pm 14.7 12.0 7.4 61 3.6 WSW 11 11 6 6 1027.2 - 0.0
27/05:00pm 15.7 13.3 7.2 57 4.2 SW 9 13 5 7 1027.0 - 0.0
27/04:30pm 16.5 13.6 8.0 57 4.3 WSW 13 17 7 9 1026.8 - 0.0
27/04:00pm 17.4 14.6 8.4 55 4.6 WSW 13 17 7 9 1026.4 - 0.0
27/03:30pm 18.4 15.3 8.7 53 5.0 W 15 19 8 10 1026.3 - 0.0
27/03:00pm 18.7 15.7 6.1 43 6.2 WSW 11 15 6 8 1026.3 1026.4 0.0
27/02:30pm 18.6 15.8 7.0 46 5.8 W 11 17 6 9 1026.3 - 0.0
27/02:00pm 19.0 17.1 6.8 45 6.1 WNW 6 11 3 6 1026.2 - 0.0
27/01:30pm 19.1 16.6 8.2 49 5.6 NW 11 15 6 8 1026.4 - 0.0
27/01:00pm 18.8 16.6 9.3 54 5.0 NNW 11 17 6 9 1026.9 - 0.0
27/12:30pm 18.4 16.5 9.0 54 4.9 N 9 13 5 7 1026.9 - 0.0
27/12:00pm 18.3 15.9 8.6 53 5.0 NW 11 15 6 8 1027.4 1027.5 0.0
27/11:30am 17.3 13.7 8.3 55 4.6 NNW 17 22 9 12 1027.8 - 0.0
27/11:00am 16.7 13.3 7.7 55 4.5 NNW 15 20 8 11 1028.0 - 0.0
27/10:30am 16.2 13.5 9.0 62 3.7 NNW 13 17 7 9 1028.1 - 0.0
27/10:00am 14.7 12.9 9.4 70 2.7 NNW 9 13 5 7 1028.2 - 0.0
27/09:30am 13.0 11.8 9.7 80 1.7 N 6 9 3 5 1028.3 - 0.0
27/09:00am 11.3 9.1 8.0 80 1.6 N 9 11 5 6 1028.1 1028.2 0.2
27/08:30am 8.8 8.3 7.7 93 0.5 CALM 0 0 0 0 1028.0 - 0.2
27/08:00am 7.3 6.5 6.6 95 0.3 CALM 0 0 0 0 1027.9 - 0.2
27/07:30am 4.8 3.6 4.8 100 0.0 CALM 0 0 0 0 1027.3 - 0.2
27/07:00am 4.4 2.4 4.4 100 0.0 W 4 7 2 4 1027.1 - 0.2
27/06:30am 6.3 2.9 5.8 97 0.2 NNE 13 15 7 8 1026.3 - 0.2
27/06:00am 6.2 2.4 5.7 97 0.2 NNE 15 17 8 9 1026.1 1026.2 0.2
27/05:30am 4.0 -0.2 3.8 99 0.1 NNE 15 19 8 10 1025.8 - 0.2
27/05:23am 3.9 0.1 3.7 99 0.1 NNE 13 15 7 8 1025.9 - 0.2
27/05:00am 3.5 -0.1 2.8 95 0.3 NNE 11 13 6 7 1025.9 - 0.2
27/04:57am 2.7 -1.4 2.4 98 0.1 NNE 13 13 7 7 1025.9 - 0.2
27/04:38am 2.9 0.0 2.4 96 0.2 NNE 7 9 4 5 1026.0 - 0.2
27/04:30am 2.9 -0.4 2.4 96 0.2 NE 9 9 5 5 1026.0 - 0.2
27/04:00am 3.0 1.4 2.5 96 0.2 CALM 0 0 0 0 1025.9 - 0.2
27/03:34am 3.3 0.5 3.1 99 0.1 NNE 7 9 4 5 1025.9 - 0.2
27/03:30am 3.4 0.6 3.2 99 0.1 NNE 7 9 4 5 1025.8 - 0.2

Other Formats:

Comma delimited format used in spreadsheet applications
http://www.bom.gov.au/fwo/IDS60801/IDS60801.94821.axf

JavaScript Object Notation format (JSON) in row-major order
http://www.bom.gov.au/fwo/IDS60801/IDS60801.94821.json